sensor_id;sensor_type;location;lat;lon;timestamp;pressure;altitude;pressure_sealevel;temperature;humidity
70011;BME280;59543;37.950;-122.338;2023-04-09T00:01:59;101756.72;;;19.53;42.44
70011;BME280;59543;37.950;-122.338;2023-04-09T00:04:26;101751.84;;;19.40;43.35
70011;BME280;59543;37.950;-122.338;2023-04-09T00:06:52;101760.66;;;19.27;41.60
70011;BME280;59543;37.950;-122.338;2023-04-09T00:09:18;101748.16;;;19.33;42.03
70011;BME280;59543;37.950;-122.338;2023-04-09T00:11:45;101752.94;;;19.31;41.54
70011;BME280;59543;37.950;-122.338;2023-04-09T00:14:11;101756.34;;;18.79;41.78
70011;BME280;59543;37.950;-122.338;2023-04-09T00:16:37;101758.41;;;19.08;42.31
70011;BME280;59543;37.950;-122.338;2023-04-09T00:19:05;101749.84;;;19.34;42.58
70011;BME280;59543;37.950;-122.338;2023-04-09T00:21:32;101755.63;;;19.39;41.65
70011;BME280;59543;37.950;-122.338;2023-04-09T00:23:58;101754.22;;;19.43;41.77
70011;BME280;59543;37.950;-122.338;2023-04-09T00:26:24;101757.50;;;19.38;39.62
70011;BME280;59543;37.950;-122.338;2023-04-09T00:28:51;101757.97;;;19.42;41.74
70011;BME280;59543;37.950;-122.338;2023-04-09T00:31:17;101754.47;;;19.33;42.02
70011;BME280;59543;37.950;-122.338;2023-04-09T00:33:43;101751.50;;;19.20;42.49
70011;BME280;59543;37.950;-122.338;2023-04-09T00:36:09;101757.25;;;19.02;41.76
70011;BME280;59543;37.950;-122.338;2023-04-09T00:38:36;101760.94;;;19.09;44.23
70011;BME280;59543;37.950;-122.338;2023-04-09T00:41:02;101756.41;;;19.02;43.79
70011;BME280;59543;37.950;-122.338;2023-04-09T00:43:28;101759.13;;;19.02;44.83
70011;BME280;59543;37.950;-122.338;2023-04-09T00:45:54;101767.78;;;19.05;45.25
70011;BME280;59543;37.950;-122.338;2023-04-09T00:48:21;101760.00;;;18.55;44.73
70011;BME280;59543;37.950;-122.338;2023-04-09T00:50:47;101761.81;;;18.70;45.99
70011;BME280;59543;37.950;-122.338;2023-04-09T00:53:15;101763.69;;;18.70;45.58
70011;BME280;59543;37.950;-122.338;2023-04-09T00:55:41;101763.25;;;18.50;43.50
70011;BME280;59543;37.950;-122.338;2023-04-09T00:58:08;101770.66;;;18.25;45.33
70011;BME280;59543;37.950;-122.338;2023-04-09T01:00:34;101769.91;;;18.47;44.52
70011;BME280;59543;37.950;-122.338;2023-04-09T01:03:01;101770.28;;;18.44;46.10
70011;BME280;59543;37.950;-122.338;2023-04-09T01:05:37;101765.81;;;18.51;45.60
70011;BME280;59543;37.950;-122.338;2023-04-09T01:08:23;101767.13;;;18.56;46.54
70011;BME280;59543;37.950;-122.338;2023-04-09T01:11:06;101767.44;;;18.30;44.90
70011;BME280;59543;37.950;-122.338;2023-04-09T01:14:00;101762.69;;;18.23;45.33
70011;BME280;59543;37.950;-122.338;2023-04-09T01:16:34;101759.13;;;18.07;45.31
70011;BME280;59543;37.950;-122.338;2023-04-09T01:21:46;101765.28;;;17.76;45.37
70011;BME280;59543;37.950;-122.338;2023-04-09T01:24:26;101766.63;;;17.72;45.76
70011;BME280;59543;37.950;-122.338;2023-04-09T01:27:06;101771.06;;;17.40;46.63
70011;BME280;59543;37.950;-122.338;2023-04-09T01:29:36;101762.38;;;17.53;46.64
70011;BME280;59543;37.950;-122.338;2023-04-09T01:32:05;101762.56;;;17.51;46.42
70011;BME280;59543;37.950;-122.338;2023-04-09T01:34:32;101763.75;;;17.49;46.91
70011;BME280;59543;37.950;-122.338;2023-04-09T01:37:02;101757.81;;;17.45;46.72
70011;BME280;59543;37.950;-122.338;2023-04-09T01:39:29;101753.19;;;17.29;47.47
70011;BME280;59543;37.950;-122.338;2023-04-09T01:41:56;101762.22;;;17.30;48.01
70011;BME280;59543;37.950;-122.338;2023-04-09T01:44:23;101757.97;;;17.27;47.26
70011;BME280;59543;37.950;-122.338;2023-04-09T01:46:50;101760.13;;;17.24;47.69
70011;BME280;59543;37.950;-122.338;2023-04-09T01:49:18;101748.88;;;17.02;46.25
70011;BME280;59543;37.950;-122.338;2023-04-09T01:51:45;101759.78;;;17.10;47.48
70011;BME280;59543;37.950;-122.338;2023-04-09T01:54:12;101752.09;;;16.89;47.30
70011;BME280;59543;37.950;-122.338;2023-04-09T01:56:43;101757.69;;;16.80;47.42
70011;BME280;59543;37.950;-122.338;2023-04-09T01:59:10;101757.94;;;16.68;48.39
70011;BME280;59543;37.950;-122.338;2023-04-09T02:01:46;101761.00;;;16.65;48.94
70011;BME280;59543;37.950;-122.338;2023-04-09T02:04:36;101761.69;;;16.33;48.02
70011;BME280;59543;37.950;-122.338;2023-04-09T02:09:41;101757.31;;;16.40;49.20
70011;BME280;59543;37.950;-122.338;2023-04-09T02:12:12;101757.41;;;16.22;48.75
70011;BME280;59543;37.950;-122.338;2023-04-09T02:14:39;101756.88;;;16.19;50.94
70011;BME280;59543;37.950;-122.338;2023-04-09T02:17:06;101758.00;;;16.08;52.37
70011;BME280;59543;37.950;-122.338;2023-04-09T02:19:39;101765.66;;;15.87;52.81
70011;BME280;59543;37.950;-122.338;2023-04-09T02:22:06;101768.19;;;15.88;53.05
70011;BME280;59543;37.950;-122.338;2023-04-09T02:24:32;101764.91;;;15.76;53.44
70011;BME280;59543;37.950;-122.338;2023-04-09T02:26:59;101772.47;;;15.55;53.85
70011;BME280;59543;37.950;-122.338;2023-04-09T02:29:25;101764.31;;;15.47;54.00
70011;BME280;59543;37.950;-122.338;2023-04-09T02:31:51;101769.09;;;15.17;54.35
70011;BME280;59543;37.950;-122.338;2023-04-09T02:34:18;101776.13;;;15.10;55.06
70011;BME280;59543;37.950;-122.338;2023-04-09T02:36:45;101781.78;;;14.99;55.47
70011;BME280;59543;37.950;-122.338;2023-04-09T02:39:11;101777.63;;;14.77;55.01
70011;BME280;59543;37.950;-122.338;2023-04-09T02:41:37;101782.28;;;14.84;55.38
70011;BME280;59543;37.950;-122.338;2023-04-09T02:44:03;101781.13;;;14.50;56.30
70011;BME280;59543;37.950;-122.338;2023-04-09T02:46:30;101785.75;;;14.39;55.68
70011;BME280;59543;37.950;-122.338;2023-04-09T02:48:56;101787.44;;;14.50;55.85
70011;BME280;59543;37.950;-122.338;2023-04-09T02:51:22;101777.94;;;14.36;55.94
70011;BME280;59543;37.950;-122.338;2023-04-09T02:53:48;101782.25;;;14.29;55.35
70011;BME280;59543;37.950;-122.338;2023-04-09T02:56:15;101788.38;;;14.22;56.18
70011;BME280;59543;37.950;-122.338;2023-04-09T02:58:41;101787.16;;;14.06;55.86
70011;BME280;59543;37.950;-122.338;2023-04-09T03:01:07;101787.59;;;13.92;56.55
70011;BME280;59543;37.950;-122.338;2023-04-09T03:03:34;101800.59;;;13.79;55.98
70011;BME280;59543;37.950;-122.338;2023-04-09T03:06:02;101799.00;;;13.76;56.02
70011;BME280;59543;37.950;-122.338;2023-04-09T03:08:28;101802.56;;;13.77;56.50
70011;BME280;59543;37.950;-122.338;2023-04-09T03:10:54;101800.59;;;13.69;56.61
70011;BME280;59543;37.950;-122.338;2023-04-09T03:13:21;101807.41;;;13.54;56.46
70011;BME280;59543;37.950;-122.338;2023-04-09T03:15:50;101809.72;;;13.48;57.41
70011;BME280;59543;37.950;-122.338;2023-04-09T03:18:18;101816.25;;;13.56;56.57
70011;BME280;59543;37.950;-122.338;2023-04-09T03:20:45;101826.34;;;13.44;57.21
70011;BME280;59543;37.950;-122.338;2023-04-09T03:23:11;101826.63;;;13.41;58.12
70011;BME280;59543;37.950;-122.338;2023-04-09T03:25:38;101826.63;;;13.50;57.72
70011;BME280;59543;37.950;-122.338;2023-04-09T03:28:04;101832.47;;;13.46;57.33
70011;BME280;59543;37.950;-122.338;2023-04-09T03:30:30;101838.72;;;13.46;57.46
70011;BME280;59543;37.950;-122.338;2023-04-09T03:32:57;101839.72;;;13.45;57.17
70011;BME280;59543;37.950;-122.338;2023-04-09T03:35:24;101845.41;;;13.42;57.65
70011;BME280;59543;37.950;-122.338;2023-04-09T03:37:50;101839.94;;;13.23;57.82
70011;BME280;59543;37.950;-122.338;2023-04-09T03:40:17;101842.63;;;13.23;58.86
70011;BME280;59543;37.950;-122.338;2023-04-09T03:42:43;101843.63;;;13.22;59.06
70011;BME280;59543;37.950;-122.338;2023-04-09T03:45:09;101846.44;;;13.11;60.15
70011;BME280;59543;37.950;-122.338;2023-04-09T03:47:36;101845.41;;;12.92;60.73
70011;BME280;59543;37.950;-122.338;2023-04-09T03:50:02;101853.50;;;12.92;60.97
70011;BME280;59543;37.950;-122.338;2023-04-09T03:52:28;101854.59;;;12.80;61.30
70011;BME280;59543;37.950;-122.338;2023-04-09T03:54:55;101858.44;;;12.87;60.76
70011;BME280;59543;37.950;-122.338;2023-04-09T03:57:21;101860.84;;;12.80;60.72
70011;BME280;59543;37.950;-122.338;2023-04-09T03:59:47;101858.13;;;12.71;60.65
70011;BME280;59543;37.950;-122.338;2023-04-09T04:02:13;101868.19;;;12.69;60.79
70011;BME280;59543;37.950;-122.338;2023-04-09T04:04:40;101869.34;;;12.45;60.71
70011;BME280;59543;37.950;-122.338;2023-04-09T04:07:06;101883.09;;;12.42;61.55
70011;BME280;59543;37.950;-122.338;2023-04-09T04:09:33;101899.28;;;12.42;61.71
70011;BME280;59543;37.950;-122.338;2023-04-09T04:12:00;101900.72;;;12.37;62.24
70011;BME280;59543;37.950;-122.338;2023-04-09T04:14:26;101908.44;;;12.30;61.98
70011;BME280;59543;37.950;-122.338;2023-04-09T04:16:52;101907.03;;;11.94;62.85
70011;BME280;59543;37.950;-122.338;2023-04-09T04:19:19;101912.06;;;11.98;63.06
70011;BME280;59543;37.950;-122.338;2023-04-09T04:21:45;101916.50;;;11.88;63.61
70011;BME280;59543;37.950;-122.338;2023-04-09T04:24:11;101924.03;;;12.05;62.97
70011;BME280;59543;37.950;-122.338;2023-04-09T04:26:38;101930.63;;;12.12;62.60
70011;BME280;59543;37.950;-122.338;2023-04-09T04:29:05;101929.94;;;11.99;63.56
70011;BME280;59543;37.950;-122.338;2023-04-09T04:31:31;101931.16;;;12.06;62.80
70011;BME280;59543;37.950;-122.338;2023-04-09T04:33:57;101930.53;;;12.03;64.28
70011;BME280;59543;37.950;-122.338;2023-04-09T04:36:23;101935.47;;;11.98;64.33
70011;BME280;59543;37.950;-122.338;2023-04-09T04:38:50;101950.19;;;11.94;65.23
70011;BME280;59543;37.950;-122.338;2023-04-09T04:41:17;101946.63;;;11.82;65.88
70011;BME280;59543;37.950;-122.338;2023-04-09T04:43:43;101946.47;;;12.06;66.21
70011;BME280;59543;37.950;-122.338;2023-04-09T04:46:09;101957.25;;;12.06;66.68
70011;BME280;59543;37.950;-122.338;2023-04-09T04:48:35;101957.41;;;12.25;66.01
70011;BME280;59543;37.950;-122.338;2023-04-09T04:51:01;101965.03;;;12.20;66.06
70011;BME280;59543;37.950;-122.338;2023-04-09T04:53:28;101962.31;;;11.99;66.68
70011;BME280;59543;37.950;-122.338;2023-04-09T04:55:54;101961.81;;;11.94;66.46
70011;BME280;59543;37.950;-122.338;2023-04-09T04:58:20;101954.50;;;11.85;66.61
70011;BME280;59543;37.950;-122.338;2023-04-09T05:00:46;101959.19;;;11.72;66.63
70011;BME280;59543;37.950;-122.338;2023-04-09T05:03:13;101962.03;;;11.59;66.35
70011;BME280;59543;37.950;-122.338;2023-04-09T05:05:39;101966.09;;;11.42;66.86
70011;BME280;59543;37.950;-122.338;2023-04-09T05:08:05;101964.41;;;11.41;66.87
70011;BME280;59543;37.950;-122.338;2023-04-09T05:10:31;101971.72;;;11.28;67.18
70011;BME280;59543;37.950;-122.338;2023-04-09T05:12:58;101979.47;;;11.32;67.58
70011;BME280;59543;37.950;-122.338;2023-04-09T05:15:24;101981.03;;;10.90;69.94
70011;BME280;59543;37.950;-122.338;2023-04-09T05:17:50;101979.06;;;10.69;71.08
70011;BME280;59543;37.950;-122.338;2023-04-09T05:20:17;101980.91;;;10.69;71.42
70011;BME280;59543;37.950;-122.338;2023-04-09T05:22:43;101987.88;;;10.83;70.71
70011;BME280;59543;37.950;-122.338;2023-04-09T05:25:09;101992.91;;;10.87;70.44
70011;BME280;59543;37.950;-122.338;2023-04-09T05:27:36;101992.44;;;10.93;70.37
70011;BME280;59543;37.950;-122.338;2023-04-09T05:30:02;101988.13;;;10.80;70.71
70011;BME280;59543;37.950;-122.338;2023-04-09T05:32:28;101997.06;;;10.80;70.63
70011;BME280;59543;37.950;-122.338;2023-04-09T05:34:55;101990.09;;;10.78;71.25
70011;BME280;59543;37.950;-122.338;2023-04-09T05:37:21;101992.03;;;10.75;71.10
70011;BME280;59543;37.950;-122.338;2023-04-09T05:39:47;101997.56;;;10.74;71.08
70011;BME280;59543;37.950;-122.338;2023-04-09T05:42:13;102001.47;;;10.81;70.68
70011;BME280;59543;37.950;-122.338;2023-04-09T05:44:40;102007.09;;;10.78;70.85
70011;BME280;59543;37.950;-122.338;2023-04-09T05:47:06;102005.72;;;10.72;71.25
70011;BME280;59543;37.950;-122.338;2023-04-09T05:49:32;102005.06;;;10.58;72.37
70011;BME280;59543;37.950;-122.338;2023-04-09T05:51:59;102009.47;;;10.59;72.11
70011;BME280;59543;37.950;-122.338;2023-04-09T05:54:25;102011.88;;;10.39;73.22
70011;BME280;59543;37.950;-122.338;2023-04-09T05:56:51;102014.56;;;10.39;73.08
70011;BME280;59543;37.950;-122.338;2023-04-09T05:59:17;102020.00;;;10.50;72.61
70011;BME280;59543;37.950;-122.338;2023-04-09T06:01:44;102009.56;;;10.46;72.72
70011;BME280;59543;37.950;-122.338;2023-04-09T06:04:10;102006.25;;;10.42;72.98
70011;BME280;59543;37.950;-122.338;2023-04-09T06:06:37;102006.22;;;10.31;74.13
70011;BME280;59543;37.950;-122.338;2023-04-09T06:09:04;102000.97;;;10.29;74.52
70011;BME280;59543;37.950;-122.338;2023-04-09T06:11:30;101997.66;;;10.37;74.30
70011;BME280;59543;37.950;-122.338;2023-04-09T06:13:57;102005.41;;;10.42;73.97
70011;BME280;59543;37.950;-122.338;2023-04-09T06:16:23;102003.22;;;10.47;73.72
70011;BME280;59543;37.950;-122.338;2023-04-09T06:18:49;102002.91;;;10.63;73.04
70011;BME280;59543;37.950;-122.338;2023-04-09T06:21:19;101998.00;;;10.57;73.35
70011;BME280;59543;37.950;-122.338;2023-04-09T06:23:45;101998.09;;;10.55;73.08
70011;BME280;59543;37.950;-122.338;2023-04-09T06:26:11;102002.59;;;10.43;73.85
70011;BME280;59543;37.950;-122.338;2023-04-09T06:28:37;102001.25;;;10.49;72.96
70011;BME280;59543;37.950;-122.338;2023-04-09T06:31:04;101994.66;;;10.42;73.01
70011;BME280;59543;37.950;-122.338;2023-04-09T06:33:30;101996.34;;;9.95;74.47
70011;BME280;59543;37.950;-122.338;2023-04-09T06:35:56;101992.28;;;9.65;76.33
70011;BME280;59543;37.950;-122.338;2023-04-09T06:38:22;102002.31;;;9.50;77.39
70011;BME280;59543;37.950;-122.338;2023-04-09T06:40:49;102003.16;;;9.64;76.53
70011;BME280;59543;37.950;-122.338;2023-04-09T06:43:15;102003.03;;;9.65;76.42
70011;BME280;59543;37.950;-122.338;2023-04-09T06:45:41;101994.50;;;9.71;75.93
70011;BME280;59543;37.950;-122.338;2023-04-09T06:48:07;101995.50;;;9.70;76.14
70011;BME280;59543;37.950;-122.338;2023-04-09T06:50:33;101994.72;;;9.68;76.44
70011;BME280;59543;37.950;-122.338;2023-04-09T06:53:00;101996.69;;;9.66;76.56
70011;BME280;59543;37.950;-122.338;2023-04-09T06:55:27;101999.72;;;9.61;76.82
70011;BME280;59543;37.950;-122.338;2023-04-09T06:57:53;102001.19;;;9.66;76.40
70011;BME280;59543;37.950;-122.338;2023-04-09T07:00:20;102005.72;;;9.65;76.50
70011;BME280;59543;37.950;-122.338;2023-04-09T07:02:48;102004.44;;;9.58;77.30
70011;BME280;59543;37.950;-122.338;2023-04-09T07:05:14;102010.56;;;9.60;76.64
70011;BME280;59543;37.950;-122.338;2023-04-09T07:07:41;102009.22;;;9.78;76.10
70011;BME280;59543;37.950;-122.338;2023-04-09T07:10:07;102014.75;;;9.64;75.85
70011;BME280;59543;37.950;-122.338;2023-04-09T07:12:34;102020.13;;;9.64;76.57
70011;BME280;59543;37.950;-122.338;2023-04-09T07:15:02;102013.25;;;9.60;76.92
70011;BME280;59543;37.950;-122.338;2023-04-09T07:17:30;102019.13;;;9.65;76.55
70011;BME280;59543;37.950;-122.338;2023-04-09T07:19:56;102018.41;;;9.63;76.41
70011;BME280;59543;37.950;-122.338;2023-04-09T07:22:24;102012.81;;;9.66;75.96
70011;BME280;59543;37.950;-122.338;2023-04-09T07:24:51;102015.50;;;9.66;76.07
70011;BME280;59543;37.950;-122.338;2023-04-09T07:27:22;102011.06;;;9.65;76.12
70011;BME280;59543;37.950;-122.338;2023-04-09T07:29:49;102013.25;;;9.60;76.10
70011;BME280;59543;37.950;-122.338;2023-04-09T07:32:16;102016.50;;;9.52;75.92
70011;BME280;59543;37.950;-122.338;2023-04-09T07:34:43;102024.03;;;9.34;76.53
70011;BME280;59543;37.950;-122.338;2023-04-09T07:37:09;102022.84;;;9.38;75.71
70011;BME280;59543;37.950;-122.338;2023-04-09T07:39:36;102025.34;;;9.29;75.83
70011;BME280;59543;37.950;-122.338;2023-04-09T07:42:03;102024.19;;;9.07;76.85
70011;BME280;59543;37.950;-122.338;2023-04-09T07:44:36;102023.97;;;8.85;77.44
70011;BME280;59543;37.950;-122.338;2023-04-09T07:47:06;102024.28;;;8.80;77.80
70011;BME280;59543;37.950;-122.338;2023-04-09T07:49:35;102028.25;;;8.87;77.62
70011;BME280;59543;37.950;-122.338;2023-04-09T07:52:02;102018.28;;;8.89;77.66
70011;BME280;59543;37.950;-122.338;2023-04-09T07:54:28;102023.53;;;8.91;77.36
70011;BME280;59543;37.950;-122.338;2023-04-09T07:56:56;102027.59;;;8.84;77.80
70011;BME280;59543;37.950;-122.338;2023-04-09T07:59:23;102028.06;;;8.90;77.05
70011;BME280;59543;37.950;-122.338;2023-04-09T08:01:50;102029.75;;;8.79;77.50
70011;BME280;59543;37.950;-122.338;2023-04-09T08:04:16;102031.13;;;8.84;78.13
70011;BME280;59543;37.950;-122.338;2023-04-09T08:06:43;102033.81;;;8.84;78.08
70011;BME280;59543;37.950;-122.338;2023-04-09T08:09:18;102031.59;;;8.91;78.24
70011;BME280;59543;37.950;-122.338;2023-04-09T08:11:45;102036.41;;;8.86;79.00
70011;BME280;59543;37.950;-122.338;2023-04-09T08:14:12;102029.63;;;8.80;78.76
70011;BME280;59543;37.950;-122.338;2023-04-09T08:16:40;102030.28;;;8.84;78.64
70011;BME280;59543;37.950;-122.338;2023-04-09T08:19:07;102030.06;;;8.61;79.88
70011;BME280;59543;37.950;-122.338;2023-04-09T08:21:39;102033.16;;;8.68;79.58
70011;BME280;59543;37.950;-122.338;2023-04-09T08:24:09;102033.72;;;8.73;79.34
70011;BME280;59543;37.950;-122.338;2023-04-09T08:26:40;102033.28;;;8.66;79.37
70011;BME280;59543;37.950;-122.338;2023-04-09T08:29:07;102035.31;;;8.63;79.77
70011;BME280;59543;37.950;-122.338;2023-04-09T08:31:34;102040.22;;;8.43;80.78
70011;BME280;59543;37.950;-122.338;2023-04-09T08:34:02;102041.53;;;8.36;81.05
70011;BME280;59543;37.950;-122.338;2023-04-09T08:36:28;102039.34;;;8.43;80.33
70011;BME280;59543;37.950;-122.338;2023-04-09T08:38:55;102038.50;;;8.42;80.64
70011;BME280;59543;37.950;-122.338;2023-04-09T08:41:23;102032.75;;;8.34;81.39
70011;BME280;59543;37.950;-122.338;2023-04-09T08:43:51;102033.91;;;8.30;80.77
70011;BME280;59543;37.950;-122.338;2023-04-09T08:46:18;102042.47;;;8.22;80.93
70011;BME280;59543;37.950;-122.338;2023-04-09T08:48:45;102039.22;;;8.17;81.89
70011;BME280;59543;37.950;-122.338;2023-04-09T08:51:13;102041.63;;;8.22;80.77
70011;BME280;59543;37.950;-122.338;2023-04-09T08:53:46;102035.03;;;8.13;81.20
70011;BME280;59543;37.950;-122.338;2023-04-09T08:56:13;102034.28;;;8.11;82.30
70011;BME280;59543;37.950;-122.338;2023-04-09T08:58:44;102032.66;;;8.09;81.47
70011;BME280;59543;37.950;-122.338;2023-04-09T09:01:29;102032.41;;;7.99;81.15
70011;BME280;59543;37.950;-122.338;2023-04-09T09:04:04;102029.06;;;7.95;81.65
70011;BME280;59543;37.950;-122.338;2023-04-09T09:06:32;102027.66;;;7.90;82.22
70011;BME280;59543;37.950;-122.338;2023-04-09T09:09:07;102031.59;;;7.84;82.85
70011;BME280;59543;37.950;-122.338;2023-04-09T09:11:40;102033.59;;;7.81;83.38
70011;BME280;59543;37.950;-122.338;2023-04-09T09:14:14;102022.44;;;7.74;83.69
70011;BME280;59543;37.950;-122.338;2023-04-09T09:16:44;102025.00;;;7.75;83.93
70011;BME280;59543;37.950;-122.338;2023-04-09T09:19:30;102024.53;;;7.69;84.32
70011;BME280;59543;37.950;-122.338;2023-04-09T09:22:03;102023.78;;;7.67;83.34
70011;BME280;59543;37.950;-122.338;2023-04-09T09:24:30;102025.91;;;7.62;82.27
70011;BME280;59543;37.950;-122.338;2023-04-09T09:27:00;102022.19;;;7.64;82.69
70011;BME280;59543;37.950;-122.338;2023-04-09T09:29:27;102020.56;;;7.62;81.71
70011;BME280;59543;37.950;-122.338;2023-04-09T09:31:54;102015.84;;;7.65;81.71
70011;BME280;59543;37.950;-122.338;2023-04-09T09:34:22;102008.66;;;7.66;81.37
70011;BME280;59543;37.950;-122.338;2023-04-09T09:36:49;102009.25;;;7.56;80.96
70011;BME280;59543;37.950;-122.338;2023-04-09T09:39:16;102007.91;;;7.64;80.61
70011;BME280;59543;37.950;-122.338;2023-04-09T09:41:43;102005.63;;;7.57;81.21
70011;BME280;59543;37.950;-122.338;2023-04-09T09:44:11;102013.50;;;7.46;81.17
70011;BME280;59543;37.950;-122.338;2023-04-09T09:46:39;102000.31;;;7.43;81.22
70011;BME280;59543;37.950;-122.338;2023-04-09T09:49:08;101999.34;;;7.44;81.03
70011;BME280;59543;37.950;-122.338;2023-04-09T09:51:39;101996.09;;;7.39;81.39
70011;BME280;59543;37.950;-122.338;2023-04-09T09:54:06;101987.50;;;7.34;81.05
70011;BME280;59543;37.950;-122.338;2023-04-09T09:56:38;101986.81;;;7.30;81.55
70011;BME280;59543;37.950;-122.338;2023-04-09T09:59:20;101981.97;;;7.37;82.91
70011;BME280;59543;37.950;-122.338;2023-04-09T10:01:50;101989.31;;;7.33;83.85
70011;BME280;59543;37.950;-122.338;2023-04-09T10:04:23;101987.31;;;7.37;83.30
70011;BME280;59543;37.950;-122.338;2023-04-09T10:06:52;101988.44;;;7.33;83.57
70011;BME280;59543;37.950;-122.338;2023-04-09T10:09:20;101991.72;;;7.24;84.08
70011;BME280;59543;37.950;-122.338;2023-04-09T10:11:47;101980.03;;;7.25;84.54
70011;BME280;59543;37.950;-122.338;2023-04-09T10:14:15;101977.16;;;7.28;84.14
70011;BME280;59543;37.950;-122.338;2023-04-09T10:16:42;101974.81;;;7.23;84.45
70011;BME280;59543;37.950;-122.338;2023-04-09T10:19:09;101974.69;;;7.25;83.53
70011;BME280;59543;37.950;-122.338;2023-04-09T10:22:06;101975.78;;;7.22;83.55
70011;BME280;59543;37.950;-122.338;2023-04-09T10:24:35;101970.88;;;7.15;83.87
70011;BME280;59543;37.950;-122.338;2023-04-09T10:27:11;101976.44;;;7.12;84.29
70011;BME280;59543;37.950;-122.338;2023-04-09T10:29:46;101974.91;;;7.07;84.76
70011;BME280;59543;37.950;-122.338;2023-04-09T10:32:21;101975.69;;;6.95;84.79
70011;BME280;59543;37.950;-122.338;2023-04-09T10:34:48;101971.38;;;6.93;85.19
70011;BME280;59543;37.950;-122.338;2023-04-09T10:37:20;101973.56;;;7.00;85.26
70011;BME280;59543;37.950;-122.338;2023-04-09T10:39:48;101975.31;;;7.01;85.05
70011;BME280;59543;37.950;-122.338;2023-04-09T10:42:25;101969.84;;;7.03;84.69
70011;BME280;59543;37.950;-122.338;2023-04-09T10:45:04;101968.72;;;7.07;84.24
70011;BME280;59543;37.950;-122.338;2023-04-09T10:47:36;101963.53;;;7.04;83.53
70011;BME280;59543;37.950;-122.338;2023-04-09T10:50:25;101968.59;;;7.08;81.86
70011;BME280;59543;37.950;-122.338;2023-04-09T10:52:56;101962.00;;;7.14;81.88
70011;BME280;59543;37.950;-122.338;2023-04-09T10:58:05;101975.56;;;6.97;81.96
70011;BME280;59543;37.950;-122.338;2023-04-09T11:00:42;101974.13;;;6.91;82.43
70011;BME280;59543;37.950;-122.338;2023-04-09T11:03:27;101972.22;;;6.93;83.07
70011;BME280;59543;37.950;-122.338;2023-04-09T11:06:02;101976.34;;;6.84;83.79
70011;BME280;59543;37.950;-122.338;2023-04-09T11:08:32;101975.66;;;6.81;83.84
70011;BME280;59543;37.950;-122.338;2023-04-09T11:10:59;101982.72;;;6.82;84.24
70011;BME280;59543;37.950;-122.338;2023-04-09T11:13:27;101980.25;;;6.79;83.98
70011;BME280;59543;37.950;-122.338;2023-04-09T11:15:54;101977.69;;;6.77;84.22
70011;BME280;59543;37.950;-122.338;2023-04-09T11:18:26;101981.00;;;6.67;84.52
70011;BME280;59543;37.950;-122.338;2023-04-09T11:20:56;101974.03;;;6.64;85.22
70011;BME280;59543;37.950;-122.338;2023-04-09T11:23:23;101973.00;;;6.81;84.52
70011;BME280;59543;37.950;-122.338;2023-04-09T11:25:50;101980.72;;;6.71;84.53
70011;BME280;59543;37.950;-122.338;2023-04-09T11:28:18;101978.25;;;6.68;84.30
70011;BME280;59543;37.950;-122.338;2023-04-09T11:30:44;101979.75;;;6.58;84.06
70011;BME280;59543;37.950;-122.338;2023-04-09T11:33:13;101965.69;;;6.54;83.45
70011;BME280;59543;37.950;-122.338;2023-04-09T11:35:40;101974.28;;;6.45;83.95
70011;BME280;59543;37.950;-122.338;2023-04-09T11:38:08;101979.84;;;6.56;82.94
70011;BME280;59543;37.950;-122.338;2023-04-09T11:40:34;101980.09;;;6.52;82.05
70011;BME280;59543;37.950;-122.338;2023-04-09T11:43:01;101989.28;;;6.48;82.31
70011;BME280;59543;37.950;-122.338;2023-04-09T11:45:29;101983.34;;;6.43;81.95
70011;BME280;59543;37.950;-122.338;2023-04-09T11:47:57;101986.31;;;6.38;82.48
70011;BME280;59543;37.950;-122.338;2023-04-09T11:50:23;101991.91;;;6.33;82.23
70011;BME280;59543;37.950;-122.338;2023-04-09T11:52:50;102000.78;;;6.34;82.35
70011;BME280;59543;37.950;-122.338;2023-04-09T11:55:27;101992.50;;;6.38;81.80
70011;BME280;59543;37.950;-122.338;2023-04-09T11:57:57;101993.78;;;6.31;81.93
70011;BME280;59543;37.950;-122.338;2023-04-09T12:00:26;101997.19;;;6.35;81.74
70011;BME280;59543;37.950;-122.338;2023-04-09T12:03:01;101999.97;;;6.17;81.65
70011;BME280;59543;37.950;-122.338;2023-04-09T12:05:30;102002.28;;;6.24;81.68
70011;BME280;59543;37.950;-122.338;2023-04-09T12:07:58;101999.88;;;6.19;81.02
70011;BME280;59543;37.950;-122.338;2023-04-09T12:10:27;102000.91;;;6.16;81.39
70011;BME280;59543;37.950;-122.338;2023-04-09T12:12:59;102004.53;;;6.15;81.26
70011;BME280;59543;37.950;-122.338;2023-04-09T12:15:30;102000.34;;;6.11;80.76
70011;BME280;59543;37.950;-122.338;2023-04-09T12:17:57;102001.19;;;6.12;80.65
70011;BME280;59543;37.950;-122.338;2023-04-09T12:20:31;102001.44;;;6.07;81.65
70011;BME280;59543;37.950;-122.338;2023-04-09T12:22:58;101999.28;;;6.14;81.00
70011;BME280;59543;37.950;-122.338;2023-04-09T12:25:26;102005.50;;;6.14;80.66
70011;BME280;59543;37.950;-122.338;2023-04-09T12:27:54;102002.50;;;6.05;81.28
70011;BME280;59543;37.950;-122.338;2023-04-09T12:30:22;102002.41;;;6.06;80.95
70011;BME280;59543;37.950;-122.338;2023-04-09T12:32:48;101996.81;;;6.11;80.94
70011;BME280;59543;37.950;-122.338;2023-04-09T12:35:14;101997.84;;;6.08;80.94
70011;BME280;59543;37.950;-122.338;2023-04-09T12:37:42;101997.72;;;6.10;81.22
70011;BME280;59543;37.950;-122.338;2023-04-09T12:40:09;101999.97;;;6.02;81.90